createdAt,value
2023-04-26T00:02:01.076Z,100644.19
2023-04-26T00:04:29.208Z,100637.34
2023-04-26T00:06:57.408Z,100629.47
2023-04-26T00:09:24.771Z,100636.56
2023-04-26T00:11:51.990Z,100629.59
2023-04-26T00:14:19.172Z,100628.03
2023-04-26T00:16:46.450Z,100631.44
2023-04-26T00:19:13.621Z,100631.66
2023-04-26T00:21:40.912Z,100629.00
2023-04-26T00:24:08.552Z,100634.25
2023-04-26T00:26:35.954Z,100642.16
2023-04-26T00:33:41.428Z,100637.00
2023-04-26T00:36:08.859Z,100630.44
2023-04-26T00:38:36.292Z,100636.44
2023-04-26T00:41:03.546Z,100636.63
2023-04-26T00:43:30.729Z,100627.28
2023-04-26T00:45:58.368Z,100641.28
2023-04-26T00:48:26.288Z,100636.16
2023-04-26T00:50:53.507Z,100634.47
2023-04-26T00:53:20.855Z,100637.13
2023-04-26T00:55:49.149Z,100641.66
2023-04-26T00:58:16.586Z,100641.72
2023-04-26T01:00:44.190Z,100640.03
2023-04-26T01:03:11.885Z,100641.88
2023-04-26T01:05:39.234Z,100638.44
2023-04-26T01:08:07.107Z,100644.69
2023-04-26T01:10:35.060Z,100644.63
2023-04-26T01:13:06.148Z,100644.75
2023-04-26T01:15:33.631Z,100642.22
2023-04-26T01:18:01.696Z,100640.53
2023-04-26T01:20:29.035Z,100641.44
2023-04-26T01:22:56.550Z,100647.47
2023-04-26T01:25:23.844Z,100653.53
2023-04-26T01:27:51.113Z,100646.63
2023-04-26T01:30:18.490Z,100649.25
2023-04-26T01:32:46.320Z,100658.06
2023-04-26T01:35:13.552Z,100660.84
2023-04-26T01:37:40.720Z,100659.00
2023-04-26T01:40:08.619Z,100660.78
2023-04-26T01:42:35.812Z,100678.22
2023-04-26T01:45:03.721Z,100663.56
2023-04-26T01:47:31.004Z,100669.56
2023-04-26T01:49:58.273Z,100670.53
2023-04-26T01:52:25.469Z,100661.09
2023-04-26T01:54:52.758Z,100666.44
2023-04-26T01:57:20.159Z,100667.34
2023-04-26T01:59:47.446Z,100667.38
2023-04-26T02:02:17.422Z,100662.28
2023-04-26T02:04:44.687Z,100662.41
2023-04-26T02:07:11.897Z,100671.00
2023-04-26T02:09:39.071Z,100657.22
2023-04-26T02:12:06.565Z,100658.94
2023-04-26T02:14:33.824Z,100675.53
2023-04-26T02:17:01.613Z,100663.41
2023-04-26T02:19:29.603Z,100663.53
2023-04-26T02:21:58.181Z,100658.38
2023-04-26T02:24:25.949Z,100655.84
2023-04-26T02:26:54.629Z,100665.53
2023-04-26T02:29:29.759Z,100661.09
2023-04-26T02:32:07.935Z,100661.19
2023-04-26T02:34:35.913Z,100663.78
2023-04-26T02:37:03.103Z,100664.75
2023-04-26T02:39:30.512Z,100672.59
2023-04-26T02:41:57.781Z,100661.41
2023-04-26T02:44:25.346Z,100678.00
2023-04-26T02:46:52.666Z,100663.97
2023-04-26T02:49:20.226Z,100655.50
2023-04-26T02:51:47.494Z,100665.91
2023-04-26T02:54:14.726Z,100661.56
2023-04-26T02:56:41.915Z,100665.00
2023-04-26T02:59:09.329Z,100664.22
2023-04-26T03:01:36.737Z,100661.72
2023-04-26T03:04:04.453Z,100680.78
2023-04-26T03:06:31.714Z,100659.97
2023-04-26T03:08:59.060Z,100664.25
2023-04-26T03:11:26.620Z,100661.78
2023-04-26T03:13:53.929Z,100677.41
2023-04-26T03:16:23.196Z,100676.50
2023-04-26T03:18:50.834Z,100669.69
2023-04-26T03:21:18.197Z,100673.09
2023-04-26T03:23:45.966Z,100660.16
2023-04-26T03:26:13.205Z,100674.84
2023-04-26T03:28:41.650Z,100677.50
2023-04-26T03:31:08.827Z,100687.00
2023-04-26T03:33:36.014Z,100676.84
2023-04-26T03:36:03.309Z,100676.84
2023-04-26T03:38:30.576Z,100684.63
2023-04-26T03:40:57.995Z,100683.72
2023-04-26T03:43:25.144Z,100684.66
2023-04-26T03:45:52.537Z,100685.66
2023-04-26T03:48:19.835Z,100689.91
2023-04-26T03:50:47.089Z,100691.66
2023-04-26T03:53:14.234Z,100699.50
2023-04-26T03:55:42.034Z,100692.50
2023-04-26T03:58:09.624Z,100689.00
2023-04-26T04:00:39.287Z,100689.00
2023-04-26T04:03:07.216Z,100698.53
2023-04-26T04:05:35.119Z,100708.03
2023-04-26T04:08:02.357Z,100708.94
2023-04-26T04:10:29.764Z,100706.44
2023-04-26T04:12:57.063Z,100711.59
2023-04-26T04:15:24.320Z,100702.84
2023-04-26T04:17:51.579Z,100700.38
2023-04-26T04:20:18.847Z,100701.09
2023-04-26T04:22:46.285Z,100703.63
2023-04-26T04:25:14.099Z,100710.56
2023-04-26T04:27:43.524Z,100707.94
2023-04-26T04:30:12.489Z,100713.91
2023-04-26T04:32:40.399Z,100708.69
2023-04-26T04:35:08.134Z,100713.00
2023-04-26T04:37:35.538Z,100718.09
2023-04-26T04:40:02.775Z,100710.28
2023-04-26T04:42:30.011Z,100720.63
2023-04-26T04:44:57.588Z,100714.53
2023-04-26T04:47:24.957Z,100724.69
2023-04-26T04:49:53.098Z,100722.91
2023-04-26T04:52:21.865Z,100716.81
2023-04-26T04:54:49.099Z,100722.91
2023-04-26T04:57:16.956Z,100727.16
2023-04-26T04:59:44.236Z,100720.06
2023-04-26T05:02:11.507Z,100732.13
2023-04-26T05:04:39.026Z,100739.06
2023-04-26T05:07:06.790Z,100730.44
2023-04-26T05:09:34.163Z,100736.22
2023-04-26T05:12:01.431Z,100738.75
2023-04-26T05:14:30.156Z,100747.16
2023-04-26T05:16:57.730Z,100746.13
2023-04-26T05:19:25.116Z,100740.72
2023-04-26T05:21:52.899Z,100744.97
2023-04-26T05:24:21.403Z,100753.59
2023-04-26T05:26:48.634Z,100758.84
2023-04-26T05:29:16.901Z,100754.34
2023-04-26T05:31:44.284Z,100750.91
2023-04-26T05:34:11.575Z,100756.69
2023-04-26T05:36:38.897Z,100754.88
2023-04-26T05:39:06.970Z,100764.03
2023-04-26T05:41:34.170Z,100757.84
2023-04-26T05:44:01.378Z,100768.94
2023-04-26T05:46:28.662Z,100770.59
2023-04-26T05:48:56.417Z,100763.78
2023-04-26T05:51:24.184Z,100768.00
2023-04-26T05:53:51.879Z,100781.78
2023-04-26T05:56:19.212Z,100765.34
2023-04-26T05:58:47.752Z,100771.28
2023-04-26T06:01:15.022Z,100769.69
2023-04-26T06:03:42.637Z,100769.34
2023-04-26T06:06:10.936Z,100770.00
2023-04-26T06:08:38.793Z,100778.38
2023-04-26T06:11:06.042Z,100779.97
2023-04-26T06:13:33.269Z,100774.56
2023-04-26T06:16:00.649Z,100776.94
2023-04-26T06:18:27.853Z,100786.00
2023-04-26T06:20:55.050Z,100784.09
2023-04-26T06:23:22.287Z,100791.66
2023-04-26T06:25:49.552Z,100779.38
2023-04-26T06:28:16.812Z,100772.22
2023-04-26T06:30:44.067Z,100779.44
2023-04-26T06:33:11.463Z,100784.34
2023-04-26T06:35:41.947Z,100783.75
2023-04-26T06:38:09.387Z,100781.91
2023-04-26T06:40:39.489Z,100798.69
2023-04-26T06:43:07.134Z,100786.28
2023-04-26T06:45:34.554Z,100802.78
2023-04-26T06:48:02.954Z,100799.88
2023-04-26T06:50:30.266Z,100796.00
2023-04-26T06:52:57.578Z,100797.38
2023-04-26T06:55:25.015Z,100798.97
2023-04-26T06:57:52.393Z,100795.72
2023-04-26T07:00:19.979Z,100793.31
2023-04-26T07:02:47.363Z,100788.69
2023-04-26T07:05:15.470Z,100803.22
2023-04-26T07:07:43.029Z,100795.09
2023-04-26T07:10:10.538Z,100797.44
2023-04-26T07:12:37.939Z,100793.56
2023-04-26T07:15:06.736Z,100799.88
2023-04-26T07:17:34.005Z,100802.00
2023-04-26T07:20:01.225Z,100799.69
2023-04-26T07:22:28.488Z,100809.50
2023-04-26T07:24:55.934Z,100793.44
2023-04-26T07:27:23.403Z,100805.88
2023-04-26T07:29:54.003Z,100809.13
2023-04-26T07:32:21.312Z,100811.66
2023-04-26T07:34:48.585Z,100804.56
2023-04-26T07:37:16.133Z,100812.50
2023-04-26T07:39:43.364Z,100804.22
2023-04-26T07:42:10.619Z,100817.53
2023-04-26T07:44:37.825Z,100814.25
2023-04-26T07:47:05.102Z,100812.88
2023-04-26T07:49:32.358Z,100813.03
2023-04-26T07:52:02.160Z,100820.53
2023-04-26T07:54:29.453Z,100820.88
2023-04-26T07:56:56.642Z,100826.69
2023-04-26T07:59:24.144Z,100823.34
2023-04-26T08:01:51.472Z,100814.03
2023-04-26T08:04:30.966Z,100819.34
2023-04-26T08:06:58.497Z,100823.50
2023-04-26T08:09:25.830Z,100829.50
2023-04-26T08:11:53.060Z,100816.38
2023-04-26T08:14:20.242Z,100820.81
2023-04-26T08:16:47.495Z,100830.84
2023-04-26T08:19:14.838Z,100834.63
2023-04-26T08:21:42.094Z,100826.22
2023-04-26T08:24:09.327Z,100822.78
2023-04-26T08:26:36.624Z,100834.81
2023-04-26T08:29:03.882Z,100837.97
2023-04-26T08:31:31.436Z,100824.00
2023-04-26T08:33:58.756Z,100818.78
2023-04-26T08:36:26.171Z,100816.25
2023-04-26T08:38:53.443Z,100834.69
2023-04-26T08:41:23.830Z,100831.03
2023-04-26T08:43:51.624Z,100832.00
2023-04-26T08:46:19.762Z,100828.56
2023-04-26T08:48:50.185Z,100832.28
2023-04-26T08:51:17.751Z,100830.81
2023-04-26T08:53:45.430Z,100832.59
2023-04-26T08:56:13.133Z,100842.66
2023-04-26T08:58:40.872Z,100827.44
2023-04-26T09:01:09.467Z,100830.50
2023-04-26T09:03:37.077Z,100831.44
2023-04-26T09:06:07.479Z,100834.63
2023-04-26T09:08:36.865Z,100838.56
2023-04-26T09:11:04.059Z,100850.75
2023-04-26T09:13:31.399Z,100853.78
2023-04-26T09:15:58.797Z,100841.38
2023-04-26T09:18:26.579Z,100832.72
2023-04-26T09:21:07.867Z,100837.94
2023-04-26T09:23:35.474Z,100835.63
2023-04-26T09:26:19.133Z,100838.56
2023-04-26T09:28:47.468Z,100828.28
2023-04-26T09:31:39.178Z,100831.16
2023-04-26T09:34:06.697Z,100834.94
2023-04-26T09:36:47.239Z,100830.41
2023-04-26T09:39:14.844Z,100841.41
2023-04-26T09:41:45.360Z,100832.66
2023-04-26T09:44:25.619Z,100841.34
2023-04-26T09:47:00.158Z,100834.47
2023-04-26T09:49:50.355Z,100836.28
2023-04-26T09:52:19.033Z,100837.25
2023-04-26T09:54:53.852Z,100833.53
2023-04-26T09:57:22.372Z,100839.13
2023-04-26T09:59:53.500Z,100830.22
2023-04-26T10:02:24.894Z,100838.34
2023-04-26T10:04:54.368Z,100840.34
2023-04-26T10:07:24.050Z,100834.47
2023-04-26T10:09:51.417Z,100829.03
2023-04-26T10:12:20.177Z,100841.69
2023-04-26T10:14:48.079Z,100839.22
2023-04-26T10:17:15.385Z,100843.53
2023-04-26T10:19:46.918Z,100845.22
2023-04-26T10:22:23.719Z,100845.44
2023-04-26T10:24:53.225Z,100847.16
2023-04-26T10:27:45.471Z,100838.56
2023-04-26T10:30:23.125Z,100840.66
2023-04-26T10:32:56.377Z,100854.81
2023-04-26T10:35:24.988Z,100846.19
2023-04-26T10:38:01.349Z,100850.34
2023-04-26T10:40:32.354Z,100849.97
2023-04-26T10:43:08.892Z,100856.91
2023-04-26T10:45:36.876Z,100849.66
2023-04-26T10:48:22.212Z,100856.78
2023-04-26T10:51:01.806Z,100863.00
2023-04-26T10:53:35.632Z,100854.44
2023-04-26T10:56:03.006Z,100853.56
2023-04-26T10:58:32.042Z,100855.50
2023-04-26T11:01:14.587Z,100846.22
2023-04-26T11:03:42.201Z,100850.78
2023-04-26T11:06:15.675Z,100844.06
2023-04-26T11:08:43.260Z,100852.28
2023-04-26T11:11:12.124Z,100849.56
2023-04-26T11:13:43.653Z,100847.72
2023-04-26T11:16:13.028Z,100854.75
2023-04-26T11:18:42.858Z,100859.13
2023-04-26T11:21:10.842Z,100864.88
2023-04-26T11:23:38.021Z,100846.66
2023-04-26T11:26:08.176Z,100849.09
2023-04-26T11:28:37.691Z,100849.84
2023-04-26T11:31:07.193Z,100863.47
2023-04-26T11:33:34.527Z,100862.59
2023-04-26T11:36:04.181Z,100852.75
2023-04-26T11:38:31.494Z,100857.84
2023-04-26T11:40:59.517Z,100859.44
2023-04-26T11:43:32.760Z,100854.09
2023-04-26T11:46:02.975Z,100852.41
2023-04-26T11:48:31.413Z,100852.59
2023-04-26T11:51:00.990Z,100845.34
2023-04-26T11:53:42.205Z,100857.22
2023-04-26T11:56:20.919Z,100853.16
2023-04-26T11:58:49.545Z,100862.75
2023-04-26T12:01:23.884Z,100862.41
2023-04-26T12:04:00.686Z,100864.16
2023-04-26T12:06:44.490Z,100867.53
2023-04-26T12:09:12.154Z,100866.00
2023-04-26T12:11:40.113Z,100869.28
2023-04-26T12:14:11.467Z,100863.16
2023-04-26T12:16:38.966Z,100863.50
2023-04-26T12:19:07.263Z,100850.72
2023-04-26T12:21:44.393Z,100855.63
2023-04-26T12:24:29.747Z,100872.09
2023-04-26T12:26:56.968Z,100869.69
2023-04-26T12:29:24.277Z,100861.69
2023-04-26T12:31:51.691Z,100860.47
2023-04-26T12:34:18.872Z,100873.88
2023-04-26T12:36:46.553Z,100872.88
2023-04-26T12:39:15.748Z,100875.75
2023-04-26T12:41:43.635Z,100864.75
2023-04-26T12:44:11.785Z,100867.22
2023-04-26T12:46:39.151Z,100870.91
2023-04-26T12:49:06.589Z,100883.28
2023-04-26T12:51:33.893Z,100877.59
2023-04-26T12:54:01.151Z,100875.34
2023-04-26T12:56:29.543Z,100884.53
2023-04-26T12:58:57.092Z,100870.53
2023-04-26T13:01:24.335Z,100857.06
2023-04-26T13:03:51.825Z,100861.38
2023-04-26T13:06:19.142Z,100859.75
2023-04-26T13:08:46.324Z,100870.63
2023-04-26T13:11:13.514Z,100863.88
2023-04-26T13:13:44.387Z,100855.41
2023-04-26T13:16:12.765Z,100873.81
2023-04-26T13:18:41.668Z,100875.28
2023-04-26T13:21:09.878Z,100864.69
2023-04-26T13:23:37.109Z,100854.81
2023-04-26T13:26:04.436Z,100871.13
2023-04-26T13:28:31.649Z,100860.97
2023-04-26T13:30:59.622Z,100858.59
2023-04-26T13:33:27.338Z,100858.56
2023-04-26T13:35:54.682Z,100860.09
2023-04-26T13:38:21.840Z,100867.09
2023-04-26T13:40:48.998Z,100857.31
2023-04-26T13:43:16.268Z,100869.44
2023-04-26T13:45:44.144Z,100872.69
2023-04-26T13:48:11.384Z,100872.09
2023-04-26T13:50:38.559Z,100866.25
2023-04-26T13:53:05.957Z,100876.69
2023-04-26T13:55:33.101Z,100875.97
2023-04-26T13:58:00.431Z,100887.00
2023-04-26T14:00:27.780Z,100889.25
2023-04-26T14:02:55.097Z,100877.84
2023-04-26T14:05:23.704Z,100878.97
2023-04-26T14:07:52.957Z,100871.22
2023-04-26T14:10:21.521Z,100876.03
2023-04-26T14:12:49.059Z,100893.47
2023-04-26T14:15:16.333Z,100882.72
2023-04-26T14:17:47.218Z,100878.88
2023-04-26T14:20:14.829Z,100884.34
2023-04-26T14:22:42.153Z,100889.25
2023-04-26T14:25:09.790Z,100885.38
2023-04-26T14:27:37.394Z,100878.34
2023-04-26T14:30:05.626Z,100881.31
2023-04-26T14:32:33.136Z,100875.22
2023-04-26T14:35:00.574Z,100892.22
2023-04-26T14:37:27.842Z,100883.63
2023-04-26T14:39:55.390Z,100889.00
2023-04-26T14:42:23.033Z,100889.19
2023-04-26T14:49:10.608Z,100885.00
2023-04-26T14:51:37.820Z,100885.56
2023-04-26T14:54:05.490Z,100891.69
2023-04-26T14:56:34.049Z,100891.88
2023-04-26T14:59:02.120Z,100885.59
2023-04-26T15:01:32.397Z,100884.75
2023-04-26T15:04:01.249Z,100905.81
2023-04-26T15:06:29.057Z,100899.34
2023-04-26T15:08:56.318Z,100892.81
2023-04-26T15:11:23.634Z,100892.91
2023-04-26T15:13:50.880Z,100889.50
2023-04-26T15:16:18.310Z,100886.31
2023-04-26T15:18:45.674Z,100881.63
2023-04-26T15:21:17.037Z,100881.69
2023-04-26T15:23:44.306Z,100882.88
2023-04-26T15:26:11.938Z,100875.56
2023-04-26T15:28:39.264Z,100874.38
2023-04-26T15:31:09.174Z,100882.00
2023-04-26T15:33:36.674Z,100877.91
2023-04-26T15:36:04.197Z,100882.78
2023-04-26T15:38:31.470Z,100875.88
2023-04-26T15:40:58.804Z,100891.63
2023-04-26T15:43:26.687Z,100880.31
2023-04-26T15:45:54.136Z,100885.69
2023-04-26T15:48:21.822Z,100886.09
2023-04-26T15:50:50.620Z,100897.97
2023-04-26T15:53:18.039Z,100902.47
2023-04-26T15:55:45.413Z,100882.69
2023-04-26T15:58:12.962Z,100895.56
2023-04-26T16:00:40.334Z,100891.06
2023-04-26T16:03:08.048Z,100889.03
2023-04-26T16:05:35.486Z,100898.09
2023-04-26T16:08:03.927Z,100896.97
2023-04-26T16:10:31.217Z,100894.25
2023-04-26T16:12:58.829Z,100898.09
2023-04-26T16:15:26.403Z,100897.19
2023-04-26T16:17:53.649Z,100894.94
2023-04-26T16:20:21.447Z,100905.53
2023-04-26T16:22:49.916Z,100897.69
2023-04-26T16:25:17.351Z,100904.25
2023-04-26T16:27:44.690Z,100903.56
2023-04-26T16:30:12.315Z,100908.97
2023-04-26T16:32:39.678Z,100899.63
2023-04-26T16:35:08.732Z,100907.72
2023-04-26T16:37:36.028Z,100907.53
2023-04-26T16:40:04.929Z,100904.44
2023-04-26T16:42:32.134Z,100905.75
2023-04-26T16:44:59.458Z,100902.47
2023-04-26T16:47:26.733Z,100905.44
2023-04-26T16:49:53.918Z,100899.72
2023-04-26T16:52:21.391Z,100910.22
2023-04-26T16:54:48.684Z,100902.66
2023-04-26T16:57:16.575Z,100898.25
2023-04-26T16:59:45.125Z,100905.56
2023-04-26T17:02:14.055Z,100894.75
2023-04-26T17:04:42.125Z,100902.34
2023-04-26T17:07:10.851Z,100903.13
2023-04-26T17:09:38.659Z,100905.75
2023-04-26T17:12:07.672Z,100907.13
2023-04-26T17:14:34.979Z,100902.22
2023-04-26T17:17:02.158Z,100905.44
2023-04-26T17:19:29.352Z,100900.13
2023-04-26T17:21:56.699Z,100906.84
2023-04-26T17:24:23.977Z,100919.44
2023-04-26T17:26:51.676Z,100917.13
2023-04-26T17:29:18.867Z,100918.22
2023-04-26T17:31:46.284Z,100913.63
2023-04-26T17:34:13.604Z,100914.72
2023-04-26T17:36:41.293Z,100920.56
2023-04-26T17:39:09.262Z,100918.94
2023-04-26T17:41:38.238Z,100929.75
2023-04-26T17:44:06.750Z,100919.56
2023-04-26T17:46:34.283Z,100914.38
2023-04-26T17:49:01.714Z,100918.38
2023-04-26T17:51:29.589Z,100924.69
2023-04-26T17:53:59.856Z,100921.22
2023-04-26T17:56:27.307Z,100935.47
2023-04-26T17:58:54.445Z,100942.78
2023-04-26T18:01:21.960Z,100938.03
2023-04-26T18:03:50.393Z,100936.59
2023-04-26T18:06:19.387Z,100942.97
2023-04-26T18:08:47.054Z,100944.22
2023-04-26T18:11:19.214Z,100947.16
2023-04-26T18:13:48.906Z,100951.00
2023-04-26T18:16:17.175Z,100955.31
2023-04-26T18:18:44.656Z,100955.72
2023-04-26T18:21:12.219Z,100954.13
2023-04-26T18:23:40.515Z,100956.09
2023-04-26T18:26:07.933Z,100956.31
2023-04-26T18:28:36.057Z,100957.56
2023-04-26T18:31:03.249Z,100964.81
2023-04-26T18:33:30.465Z,100967.75
2023-04-26T18:35:57.654Z,100967.06
2023-04-26T18:38:25.010Z,100969.84
2023-04-26T18:40:53.411Z,100968.19
2023-04-26T18:43:20.869Z,100970.88
2023-04-26T18:45:49.235Z,100980.56
2023-04-26T18:48:51.078Z,100972.59
2023-04-26T18:51:18.268Z,100973.44
2023-04-26T18:53:45.619Z,100980.44
2023-04-26T18:56:12.834Z,100987.47
2023-04-26T18:58:41.106Z,100984.72
2023-04-26T19:01:08.489Z,100986.50
2023-04-26T19:03:36.500Z,100990.75
2023-04-26T19:06:09.110Z,100988.97
2023-04-26T19:08:37.200Z,100992.50
2023-04-26T19:11:04.426Z,100996.91
2023-04-26T19:13:33.087Z,100996.06
2023-04-26T19:16:01.978Z,101002.31
2023-04-26T19:18:29.595Z,101005.25
2023-04-26T19:20:56.887Z,101002.75
2023-04-26T19:23:24.060Z,100999.41
2023-04-26T19:25:51.260Z,101005.63
2023-04-26T19:28:18.503Z,101003.25
2023-04-26T19:30:45.749Z,101001.78
2023-04-26T19:33:13.469Z,101002.81
2023-04-26T19:35:41.082Z,101004.69
2023-04-26T19:38:09.856Z,101002.31
2023-04-26T19:40:38.703Z,101008.47
2023-04-26T19:43:05.982Z,101007.66
2023-04-26T19:45:33.168Z,101005.13
2023-04-26T19:48:00.478Z,101011.38
2023-04-26T19:50:27.810Z,101014.06
2023-04-26T19:52:54.987Z,101013.25
2023-04-26T19:55:22.350Z,101016.84
2023-04-26T19:57:51.964Z,101013.50
2023-04-26T20:00:19.229Z,101012.47
2023-04-26T20:02:46.970Z,101014.13
2023-04-26T20:05:14.238Z,101024.72
2023-04-26T20:07:41.826Z,101022.28
2023-04-26T20:10:09.707Z,101020.69
2023-04-26T20:12:37.058Z,101023.28
2023-04-26T20:15:04.753Z,101021.63
2023-04-26T20:17:32.150Z,101022.53
2023-04-26T20:19:59.512Z,101028.03
2023-04-26T20:22:26.771Z,101026.34
2023-04-26T20:24:53.966Z,101021.97
2023-04-26T20:27:21.238Z,101026.34
2023-04-26T20:29:48.582Z,101034.22
2023-04-26T20:32:15.857Z,101032.59
2023-04-26T20:34:43.068Z,101034.34
2023-04-26T20:39:37.698Z,101040.69
2023-04-26T20:42:05.038Z,101039.84
2023-04-26T20:44:32.529Z,101033.00
2023-04-26T20:46:59.810Z,101042.50
2023-04-26T20:49:28.310Z,101033.09
2023-04-26T20:51:55.494Z,101039.25
2023-04-26T20:54:22.813Z,101040.19
2023-04-26T20:56:50.035Z,101034.94
2023-04-26T20:59:17.347Z,101027.94
2023-04-26T21:02:09.945Z,101040.13
2023-04-26T21:04:38.716Z,101040.22
2023-04-26T21:07:06.275Z,101035.03
2023-04-26T21:09:33.488Z,101037.59
2023-04-26T21:12:00.647Z,101033.28
2023-04-26T21:14:28.029Z,101036.66
2023-04-26T21:16:55.463Z,101034.94
2023-04-26T21:19:29.379Z,101032.44
2023-04-26T21:22:46.717Z,101035.97
2023-04-26T21:25:17.002Z,101033.41
2023-04-26T21:27:44.216Z,101031.75
2023-04-26T21:30:12.156Z,101031.69
2023-04-26T21:32:42.292Z,101027.25
2023-04-26T21:35:11.226Z,101030.66
2023-04-26T21:37:38.499Z,101034.13
2023-04-26T21:40:06.960Z,101037.56
2023-04-26T21:42:34.266Z,101041.94
2023-04-26T21:45:01.494Z,101044.44
2023-04-26T21:47:28.856Z,101043.53
2023-04-26T21:49:56.212Z,101031.19
2023-04-26T21:52:23.454Z,101045.81
2023-04-26T21:54:52.718Z,101043.25
2023-04-26T21:57:24.033Z,101044.94
2023-04-26T21:59:51.388Z,101046.59
2023-04-26T22:02:19.028Z,101041.38
2023-04-26T22:04:46.649Z,101037.81
2023-04-26T22:07:13.974Z,101040.44
2023-04-26T22:09:41.437Z,101047.34
2023-04-26T22:12:08.601Z,101049.97
2023-04-26T22:14:35.905Z,101050.81
2023-04-26T22:17:04.006Z,101050.03
2023-04-26T22:19:31.766Z,101061.28
2023-04-26T22:21:59.057Z,101062.22
2023-04-26T22:24:26.412Z,101059.53
2023-04-26T22:26:53.710Z,101074.28
2023-04-26T22:29:21.296Z,101070.22
2023-04-26T22:31:48.700Z,101074.59
2023-04-26T22:34:15.991Z,101074.59
2023-04-26T22:36:43.279Z,101083.41
2023-04-26T22:39:10.781Z,101077.16
2023-04-26T22:41:38.249Z,101085.69
2023-04-26T22:44:05.800Z,101089.31
2023-04-26T22:46:33.023Z,101090.31
2023-04-26T22:49:00.483Z,101087.72
2023-04-26T22:51:28.777Z,101088.72
2023-04-26T22:53:55.994Z,101091.31
2023-04-26T22:56:23.279Z,101090.66
2023-04-26T22:58:50.501Z,101089.81
2023-04-26T23:01:17.865Z,101087.31
2023-04-26T23:03:45.145Z,101093.28
2023-04-26T23:06:12.433Z,101084.59
2023-04-26T23:08:39.673Z,101094.19
2023-04-26T23:11:08.631Z,101092.44
2023-04-26T23:13:38.625Z,101089.75
2023-04-26T23:16:06.298Z,101096.03
2023-04-26T23:18:34.167Z,101097.91
2023-04-26T23:21:01.397Z,101100.44
2023-04-26T23:23:29.014Z,101097.84
2023-04-26T23:25:57.689Z,101097.03
2023-04-26T23:28:24.976Z,101104.91
2023-04-26T23:30:52.210Z,101104.03
2023-04-26T23:33:19.429Z,101110.13
2023-04-26T23:35:46.584Z,101099.66
2023-04-26T23:38:13.844Z,101096.97
2023-04-26T23:40:41.575Z,101102.28
2023-04-26T23:43:08.902Z,101104.03
2023-04-26T23:45:36.123Z,101104.81
2023-04-26T23:48:03.499Z,101096.38
2023-04-26T23:50:31.446Z,101100.69
2023-04-26T23:52:58.642Z,101096.44
2023-04-26T23:55:25.911Z,101100.06
2023-04-26T23:57:53.304Z,101100.16
